Alice, TX

9:47 AM CST on December 20, 2014 (GMT -0600)
Ben Bolt Service Center | Change Station
CLOSE
Current Station
Personal Weather Station
Location: Alice, TX
Elevation: 220 ft
Nearby Weather Stations

Elev 220 ft 27.68 °N, 98.08 °W | Updated 13 seconds ago

Overcast
Overcast
51.1 °F
Feels Like 51.1 °F
N
6.0
Wind Variable Wind from NNE
Gusts 10.0 mph

Today
High -- | Low -- °F
--% Chance of Precip.
Yesterday
High -- | Low -- °F
Precip. -- in
7:18 AM 5:41 PM
Waning Crescent, 3% visible
Pressure 30.21 in
Visibility 9.0 miles
Clouds Overcast 700 ft
Dew Point 49 °F
Humidity 91%
Rainfall 0.00 in
Snow Depth Not available.
UV 0 out of 12
Pollen 7.70 out of 12
Air Quality Not available.
Flu Activity Not available.
METAR KALI 201453Z AUTO 03007KT 9SM OVC007 12/09 A3021 RMK AO2 SLP229 T01170094 53012

More Conditions Fewer Conditions

Pressure 30.21 in
Visibility 9.0 miles
Clouds Overcast 700 ft
Dew Point 49 °F
Humidity 91%
Rainfall 0.00 in
Snow Depth Not available.
UV 0 out of 12
Pollen 7.70 out of 12
Air Quality Not available.
Flu Activity Not available.
METAR KALI 201453Z AUTO 03007KT 9SM OVC007 12/09 A3021 RMK AO2 SLP229 T01170094 53012

More Conditions Fewer Conditions

10-Day Weather Forecast

Almanac

Astronomy

Dec. 20, 2014 Rise Set
Actual Time
Civil Twilight
Nautical Twilight
Astronomical Twilight
Moon
Length of Visible Light
Length of Day
Tomorrow will be .
, % of the Moon is Illuminated

Today's Extremes

State Highs State Lows

Community

WunderPhotos

Upload Photos

1,779,211 photos uploaded!

WunderBlogs® & News

Nearby

Air Quality

  Air Quality AQ Index Pollutant
Not available.

Snow Depth

Station Depth Elevation

Earthquake Activity

City Distance Mag. Time & Date
Minimum magnitude displayed is 2.5.

Coastal Water Temperatures

Place Temperature

Nearby Weather Stations